createdAt,value
2022-11-18T00:01:20.225Z,-0.58
2022-11-18T00:03:48.260Z,-0.55
2022-11-18T00:06:18.433Z,-0.53
2022-11-18T00:08:46.239Z,-0.55
2022-11-18T00:11:36.640Z,-0.57
2022-11-18T00:14:22.423Z,-0.60
2022-11-18T00:16:54.658Z,-0.61
2022-11-18T00:19:39.444Z,-0.60
2022-11-18T00:22:09.924Z,-0.58
2022-11-18T00:24:37.502Z,-0.57
2022-11-18T00:27:05.132Z,-0.53
2022-11-18T00:29:32.939Z,-0.51
2022-11-18T00:32:00.559Z,-0.50
2022-11-18T00:34:28.115Z,-0.50
2022-11-18T00:36:55.699Z,-0.53
2022-11-18T00:39:23.861Z,-0.50
2022-11-18T00:42:10.314Z,-0.48
2022-11-18T00:44:37.943Z,-0.47
2022-11-18T00:47:05.564Z,-0.51
2022-11-18T00:49:33.156Z,-0.54
2022-11-18T00:52:01.338Z,-0.56
2022-11-18T00:54:29.080Z,-0.56
2022-11-18T00:56:56.667Z,-0.57
2022-11-18T00:59:24.318Z,-0.61
2022-11-18T01:01:52.028Z,-0.65
2022-11-18T01:04:20.038Z,-0.67
2022-11-18T01:06:47.642Z,-0.70
2022-11-18T01:09:15.626Z,-0.72
2022-11-18T01:12:02.379Z,-0.76
2022-11-18T01:14:29.952Z,-0.78
2022-11-18T01:16:58.162Z,-0.81
2022-11-18T01:19:26.438Z,-0.80
2022-11-18T01:21:54.511Z,-0.79
2022-11-18T01:24:22.479Z,-0.76
2022-11-18T01:26:50.058Z,-0.74
2022-11-18T01:29:17.876Z,-0.72
2022-11-18T01:32:09.083Z,-0.74
2022-11-18T01:34:33.291Z,-0.79
2022-11-18T01:37:00.865Z,-0.81
2022-11-18T01:39:28.447Z,-0.83
2022-11-18T01:41:56.027Z,-0.83
2022-11-18T01:44:54.834Z,-0.86
2022-11-18T01:47:22.872Z,-0.92
2022-11-18T01:49:50.634Z,-0.98
2022-11-18T01:52:18.258Z,-1.03
2022-11-18T01:54:48.600Z,-1.02
2022-11-18T01:57:18.916Z,-1.00
2022-11-18T01:59:49.589Z,-0.98
2022-11-18T02:02:17.641Z,-1.00
2022-11-18T02:04:48.011Z,-1.02
2022-11-18T02:07:16.740Z,-1.01
2022-11-18T02:09:44.821Z,-1.01
2022-11-18T02:12:13.151Z,-1.03
2022-11-18T02:14:43.774Z,-1.04
2022-11-18T02:17:36.574Z,-1.02
2022-11-18T02:20:41.290Z,-1.03
2022-11-18T02:23:31.634Z,-1.04
2022-11-18T02:26:30.610Z,-1.03
2022-11-18T02:29:07.635Z,-1.01
2022-11-18T02:31:56.985Z,-0.96
2022-11-18T02:34:41.055Z,-0.94
2022-11-18T02:37:31.415Z,-0.94
2022-11-18T02:40:24.972Z,-0.91
2022-11-18T02:43:00.590Z,-0.88
2022-11-18T02:45:29.819Z,-0.90
2022-11-18T02:48:03.423Z,-0.90
2022-11-18T02:50:32.310Z,-0.88
2022-11-18T02:53:01.922Z,-0.83
2022-11-18T02:55:31.741Z,-0.81
2022-11-18T02:58:00.839Z,-0.81
2022-11-18T03:00:28.610Z,-0.82
2022-11-18T03:02:56.313Z,-0.84
2022-11-18T03:05:35.196Z,-0.90
2022-11-18T03:08:10.361Z,-0.97
2022-11-18T03:10:47.001Z,-0.98
2022-11-18T03:13:14.672Z,-0.99
2022-11-18T03:16:02.600Z,-0.98
2022-11-18T03:18:45.055Z,-1.00
2022-11-18T03:21:19.419Z,-0.99
2022-11-18T03:24:00.189Z,-0.98
2022-11-18T03:26:32.425Z,-0.92
2022-11-18T03:29:30.107Z,-0.87
2022-11-18T03:32:03.905Z,-0.88
2022-11-18T03:34:41.300Z,-0.91
2022-11-18T03:37:12.878Z,-0.94
2022-11-18T03:39:43.935Z,-0.96
2022-11-18T03:42:35.521Z,-0.93
2022-11-18T03:45:27.208Z,-0.89
2022-11-18T03:48:08.078Z,-0.91
2022-11-18T03:50:48.883Z,-0.93
2022-11-18T03:53:18.138Z,-0.94
2022-11-18T03:55:49.593Z,-0.94
2022-11-18T03:58:23.551Z,-0.90
2022-11-18T04:00:56.852Z,-0.87
2022-11-18T04:03:26.170Z,-0.89
2022-11-18T04:06:01.899Z,-0.91
2022-11-18T04:08:35.146Z,-0.95
2022-11-18T04:11:50.007Z,-0.96
2022-11-18T04:14:18.827Z,-1.03
2022-11-18T04:16:51.335Z,-1.06
2022-11-18T04:19:19.984Z,-1.02
2022-11-18T04:21:48.655Z,-0.95
2022-11-18T04:24:16.283Z,-0.91
2022-11-18T04:26:43.875Z,-0.88
2022-11-18T04:29:11.424Z,-0.90
2022-11-18T04:31:38.967Z,-0.94
2022-11-18T04:34:06.514Z,-0.93
2022-11-18T04:36:34.089Z,-0.92
2022-11-18T04:39:01.663Z,-0.91
2022-11-18T04:41:48.327Z,-0.89
2022-11-18T04:44:15.968Z,-0.87
2022-11-18T04:46:45.007Z,-0.88
2022-11-18T04:49:14.629Z,-0.89
2022-11-18T04:51:43.370Z,-0.92
2022-11-18T04:54:11.834Z,-0.95
2022-11-18T04:56:44.134Z,-0.98
2022-11-18T04:59:16.964Z,-0.99
2022-11-18T05:01:44.944Z,-0.97
2022-11-18T05:04:14.617Z,-0.99
2022-11-18T05:06:42.345Z,-1.02
2022-11-18T05:09:10.414Z,-1.05
2022-11-18T05:11:57.189Z,-1.06
2022-11-18T05:14:26.993Z,-1.06
2022-11-18T05:16:55.697Z,-1.09
2022-11-18T05:19:23.561Z,-1.07
2022-11-18T05:21:51.422Z,-1.09
2022-11-18T05:24:19.131Z,-1.14
2022-11-18T05:26:46.871Z,-1.17
2022-11-18T05:29:14.488Z,-1.16
2022-11-18T05:31:42.114Z,-1.13
2022-11-18T05:34:09.743Z,-1.11
2022-11-18T05:36:37.310Z,-1.11
2022-11-18T05:39:05.044Z,-1.10
2022-11-18T05:41:51.398Z,-1.10
2022-11-18T05:44:19.055Z,-1.12
2022-11-18T05:46:46.613Z,-1.13
2022-11-18T05:49:14.209Z,-1.14
2022-11-18T05:51:41.812Z,-1.16
2022-11-18T05:54:10.194Z,-1.15
2022-11-18T05:56:44.733Z,-1.15
2022-11-18T05:59:13.844Z,-1.18
2022-11-18T06:01:45.843Z,-1.19
2022-11-18T06:04:38.398Z,-1.21
2022-11-18T06:07:33.653Z,-1.21
2022-11-18T06:10:05.432Z,-1.21
2022-11-18T06:12:39.044Z,-1.23
2022-11-18T06:15:18.491Z,-1.24
2022-11-18T06:17:51.075Z,-1.24
2022-11-18T06:20:22.007Z,-1.26
2022-11-18T06:22:51.603Z,-1.25
2022-11-18T06:25:19.614Z,-1.23
2022-11-18T06:27:47.976Z,-1.23
2022-11-18T06:30:15.743Z,-1.23
2022-11-18T06:32:43.306Z,-1.23
2022-11-18T06:35:10.917Z,-1.21
2022-11-18T06:37:38.635Z,-1.18
2022-11-18T06:40:07.116Z,-1.19
2022-11-18T06:42:53.222Z,-1.21
2022-11-18T06:45:20.870Z,-1.21
2022-11-18T06:47:48.551Z,-1.17
2022-11-18T06:50:16.661Z,-1.14
2022-11-18T06:52:44.230Z,-1.13
2022-11-18T06:55:11.787Z,-1.13
2022-11-18T06:57:39.408Z,-1.14
2022-11-18T07:00:07.849Z,-1.19
2022-11-18T07:02:38.532Z,-1.23
2022-11-18T07:05:06.475Z,-1.27
2022-11-18T07:07:41.619Z,-1.25
2022-11-18T07:10:10.160Z,-1.23
2022-11-18T07:12:37.746Z,-1.18
2022-11-18T07:15:05.970Z,-1.15
2022-11-18T07:17:33.558Z,-1.10
2022-11-18T07:20:01.110Z,-1.06
2022-11-18T07:22:29.005Z,-1.09
2022-11-18T07:24:56.569Z,-1.14
2022-11-18T07:27:24.246Z,-1.12
2022-11-18T07:29:51.795Z,-1.12
2022-11-18T07:32:19.377Z,-1.15
2022-11-18T07:34:46.926Z,-1.18
2022-11-18T07:37:14.500Z,-1.20
2022-11-18T07:39:42.075Z,-1.20
2022-11-18T07:42:09.963Z,-1.19
2022-11-18T07:44:37.538Z,-1.19
2022-11-18T07:47:05.143Z,-1.18
2022-11-18T07:49:32.695Z,-1.15
2022-11-18T07:52:00.555Z,-1.12
2022-11-18T07:54:28.146Z,-1.11
2022-11-18T07:56:55.731Z,-1.15
2022-11-18T07:59:23.301Z,-1.22
2022-11-18T08:01:50.959Z,-1.23
2022-11-18T08:04:18.687Z,-1.21
2022-11-18T08:06:46.257Z,-1.21
2022-11-18T08:09:13.821Z,-1.23
2022-11-18T08:11:41.390Z,-1.24
2022-11-18T08:14:09.072Z,-1.24
2022-11-18T08:16:36.847Z,-1.22
2022-11-18T08:19:04.462Z,-1.18
2022-11-18T08:21:32.042Z,-1.15
2022-11-18T08:23:59.628Z,-1.15
2022-11-18T08:26:27.704Z,-1.12
2022-11-18T08:28:55.394Z,-1.12
2022-11-18T08:31:25.800Z,-1.12
2022-11-18T08:34:01.220Z,-1.15
2022-11-18T08:36:31.482Z,-1.15
2022-11-18T08:39:00.882Z,-1.14
2022-11-18T08:41:36.410Z,-1.16
2022-11-18T08:44:05.623Z,-1.18
2022-11-18T08:46:33.663Z,-1.17
2022-11-18T08:49:01.296Z,-1.15
2022-11-18T08:51:29.422Z,-1.11
2022-11-18T08:53:57.316Z,-1.07
2022-11-18T08:56:25.696Z,-1.02
2022-11-18T08:58:54.394Z,-0.95
2022-11-18T09:01:22.610Z,-0.91
2022-11-18T09:03:50.429Z,-0.89
2022-11-18T09:06:21.070Z,-0.83
2022-11-18T09:08:48.914Z,-0.80
2022-11-18T09:11:21.500Z,-0.76
2022-11-18T09:14:39.056Z,-0.72
2022-11-18T09:16:40.532Z,-0.69
2022-11-18T09:19:32.103Z,-0.66
2022-11-18T09:21:55.754Z,-0.62
2022-11-18T09:24:23.340Z,-0.56
2022-11-18T09:26:51.286Z,-0.53
2022-11-18T09:29:20.070Z,-0.48
2022-11-18T09:31:47.643Z,-0.43
2022-11-18T09:34:15.469Z,-0.43
2022-11-18T09:36:43.555Z,-0.44
2022-11-18T09:39:11.420Z,-0.45
2022-11-18T09:42:12.407Z,-0.42
2022-11-18T09:44:51.821Z,-0.45
2022-11-18T09:47:27.523Z,-0.47
2022-11-18T09:50:14.895Z,-0.41
2022-11-18T09:55:59.414Z,-0.23
2022-11-18T09:58:34.114Z,-0.21
2022-11-18T10:01:03.038Z,-0.19
2022-11-18T10:03:32.766Z,-0.16
2022-11-18T10:06:10.123Z,-0.16
2022-11-18T10:08:43.074Z,-0.19
2022-11-18T10:11:21.435Z,-0.18
2022-11-18T10:14:07.968Z,-0.17
2022-11-18T10:16:50.905Z,-0.16
2022-11-18T10:19:44.335Z,-0.13
2022-11-18T10:22:34.382Z,-0.10
2022-11-18T10:25:02.032Z,-0.13
2022-11-18T10:27:39.647Z,-0.16
2022-11-18T10:30:16.683Z,-0.17
2022-11-18T10:32:56.531Z,-0.16
2022-11-18T10:35:44.362Z,-0.10
2022-11-18T10:38:14.738Z,-0.10
2022-11-18T10:40:47.098Z,-0.09
2022-11-18T10:43:49.038Z,-0.07
2022-11-18T10:46:27.197Z,-0.06
2022-11-18T10:49:09.912Z,-0.06
2022-11-18T10:51:41.047Z,-0.02
2022-11-18T10:54:18.932Z,0.05
2022-11-18T10:56:57.841Z,0.10
2022-11-18T10:59:35.494Z,0.10
2022-11-18T11:02:32.584Z,0.06
2022-11-18T11:05:04.464Z,0.04
2022-11-18T11:07:35.019Z,0.11
2022-11-18T11:10:05.840Z,0.21
2022-11-18T11:12:46.902Z,0.27
2022-11-18T11:15:18.429Z,0.38
2022-11-18T11:18:11.471Z,0.52
2022-11-18T11:20:39.272Z,0.69
2022-11-18T11:23:11.194Z,0.80
2022-11-18T11:28:54.237Z,0.80
2022-11-18T11:31:30.278Z,0.69
2022-11-18T11:34:22.993Z,0.60
2022-11-18T11:37:04.452Z,0.55
2022-11-18T11:39:41.435Z,0.56
2022-11-18T11:42:18.551Z,0.56
2022-11-18T11:44:58.510Z,0.56
2022-11-18T11:47:57.050Z,0.55
2022-11-18T11:55:00.314Z,0.34
2022-11-18T11:57:44.623Z,0.29
2022-11-18T12:00:14.541Z,0.26
2022-11-18T12:02:58.292Z,0.25
2022-11-18T12:05:39.462Z,0.25
2022-11-18T12:08:21.580Z,0.24
2022-11-18T12:11:13.814Z,0.28
2022-11-18T12:14:05.202Z,0.33
2022-11-18T12:16:43.319Z,0.32
2022-11-18T12:19:12.252Z,0.26
2022-11-18T12:21:45.647Z,0.26
2022-11-18T12:24:30.812Z,0.30
2022-11-18T12:27:05.625Z,0.36
2022-11-18T12:29:40.675Z,0.38
2022-11-18T12:32:42.242Z,0.35
2022-11-18T12:35:13.163Z,0.33
2022-11-18T12:38:00.517Z,0.29
2022-11-18T12:40:38.378Z,0.27
2022-11-18T12:43:44.764Z,0.27
2022-11-18T12:46:42.803Z,0.27
2022-11-18T12:49:22.540Z,0.26
2022-11-18T12:51:52.297Z,0.27
2022-11-18T12:54:27.673Z,0.33
2022-11-18T12:56:58.645Z,0.37
2022-11-18T12:59:36.686Z,0.40
2022-11-18T13:02:10.376Z,0.41
2022-11-18T13:04:44.362Z,0.40
2022-11-18T13:07:39.276Z,0.40
2022-11-18T13:10:21.249Z,0.41
2022-11-18T13:12:49.226Z,0.42
2022-11-18T13:15:35.457Z,0.41
2022-11-18T13:18:21.469Z,0.38
2022-11-18T13:21:20.358Z,0.38
2022-11-18T13:24:00.406Z,0.35
2022-11-18T13:26:32.720Z,0.32
2022-11-18T13:29:09.426Z,0.29
2022-11-18T13:31:53.405Z,0.31
2022-11-18T13:34:26.767Z,0.28
2022-11-18T13:36:56.709Z,0.28
2022-11-18T13:39:27.071Z,0.29
2022-11-18T13:42:22.314Z,0.26
2022-11-18T13:44:55.441Z,0.21
2022-11-18T13:47:51.616Z,0.17
2022-11-18T13:50:31.455Z,0.15
2022-11-18T13:53:23.366Z,0.12
2022-11-18T13:55:58.926Z,0.13
2022-11-18T13:58:40.126Z,0.16
2022-11-18T14:01:19.267Z,0.17
2022-11-18T14:03:52.404Z,0.15
2022-11-18T14:06:39.387Z,0.15
2022-11-18T14:09:30.956Z,0.17
2022-11-18T14:12:03.214Z,0.15
2022-11-18T14:14:33.939Z,0.12
2022-11-18T14:17:18.623Z,0.11
2022-11-18T14:19:48.392Z,0.09
2022-11-18T14:22:22.200Z,0.09
2022-11-18T14:25:01.201Z,0.10
2022-11-18T14:27:51.515Z,0.07
2022-11-18T14:30:39.854Z,0.05
2022-11-18T14:33:20.748Z,0.04
2022-11-18T14:36:15.416Z,0.03
2022-11-18T14:39:25.528Z,-0.00
2022-11-18T14:41:49.493Z,-0.06
2022-11-18T14:44:18.650Z,-0.09
2022-11-18T14:46:49.638Z,-0.06
2022-11-18T14:49:19.936Z,-0.03
2022-11-18T14:51:48.217Z,0.00
2022-11-18T14:54:23.791Z,0.02
2022-11-18T14:56:55.675Z,-0.01
2022-11-18T14:59:23.285Z,0.00
2022-11-18T15:01:51.306Z,0.02
2022-11-18T15:04:21.009Z,0.04
2022-11-18T15:06:49.016Z,0.05
2022-11-18T15:09:16.657Z,0.01
2022-11-18T15:11:44.698Z,-0.02
2022-11-18T15:14:12.355Z,-0.03
2022-11-18T15:16:39.978Z,-0.04
2022-11-18T15:19:13.458Z,-0.05
2022-11-18T15:21:41.041Z,-0.06
2022-11-18T15:24:08.660Z,-0.10
2022-11-18T15:26:39.500Z,-0.14
2022-11-18T15:29:18.684Z,-0.17
2022-11-18T15:31:47.190Z,-0.21
2022-11-18T15:34:15.859Z,-0.24
2022-11-18T15:36:43.786Z,-0.25
2022-11-18T15:39:12.205Z,-0.26
2022-11-18T15:41:41.333Z,-0.28
2022-11-18T15:44:10.139Z,-0.29
2022-11-18T15:46:37.772Z,-0.28
2022-11-18T15:49:08.161Z,-0.29
2022-11-18T15:51:37.115Z,-0.31
2022-11-18T15:54:04.723Z,-0.32
2022-11-18T15:56:33.053Z,-0.33
2022-11-18T15:59:10.014Z,-0.33
2022-11-18T16:01:41.927Z,-0.34
2022-11-18T16:04:11.644Z,-0.36
2022-11-18T16:06:39.375Z,-0.40
2022-11-18T16:09:07.212Z,-0.39
2022-11-18T16:11:53.770Z,-0.42
2022-11-18T16:14:23.169Z,-0.44
2022-11-18T16:16:53.973Z,-0.45
2022-11-18T16:19:24.604Z,-0.43
2022-11-18T16:21:55.839Z,-0.41
2022-11-18T16:24:26.059Z,-0.41
2022-11-18T16:26:53.904Z,-0.46
2022-11-18T16:29:23.539Z,-0.51
2022-11-18T16:31:52.889Z,-0.52
2022-11-18T16:34:26.179Z,-0.52
2022-11-18T16:36:55.942Z,-0.53
2022-11-18T16:39:26.204Z,-0.57
2022-11-18T16:41:59.412Z,-0.58
2022-11-18T16:44:30.136Z,-0.63
2022-11-18T16:46:58.019Z,-0.63
2022-11-18T16:49:26.980Z,-0.64
2022-11-18T16:51:56.179Z,-0.60
2022-11-18T16:54:29.167Z,-0.57
2022-11-18T16:56:58.151Z,-0.53
2022-11-18T16:59:27.622Z,-0.52
2022-11-18T17:01:56.879Z,-0.52
2022-11-18T17:04:26.226Z,-0.55
2022-11-18T17:06:54.256Z,-0.58
2022-11-18T17:09:23.650Z,-0.58
2022-11-18T17:11:52.746Z,-0.58
2022-11-18T17:14:21.875Z,-0.64
2022-11-18T17:16:50.606Z,-0.65
2022-11-18T17:19:23.168Z,-0.63
2022-11-18T17:21:51.982Z,-0.61
2022-11-18T17:24:22.255Z,-0.61
2022-11-18T17:26:52.012Z,-0.58
2022-11-18T17:29:20.646Z,-0.57
2022-11-18T17:31:49.000Z,-0.56
2022-11-18T17:34:17.106Z,-0.54
2022-11-18T17:36:45.145Z,-0.55
2022-11-18T17:39:13.473Z,-0.54
2022-11-18T17:42:00.172Z,-0.55
2022-11-18T17:44:29.168Z,-0.61
2022-11-18T17:46:56.810Z,-0.63
2022-11-18T17:49:24.455Z,-0.63
2022-11-18T17:51:52.209Z,-0.63
2022-11-18T17:54:20.634Z,-0.60
2022-11-18T17:56:49.980Z,-0.57
2022-11-18T17:59:18.203Z,-0.54
2022-11-18T18:01:46.650Z,-0.53
2022-11-18T18:04:20.023Z,-0.51
2022-11-18T18:06:51.009Z,-0.51
2022-11-18T18:09:28.480Z,-0.50
2022-11-18T18:11:59.902Z,-0.51
2022-11-18T18:14:27.491Z,-0.53
2022-11-18T18:16:55.067Z,-0.54
2022-11-18T18:19:23.206Z,-0.54
2022-11-18T18:21:51.060Z,-0.54
2022-11-18T18:24:20.805Z,-0.56
2022-11-18T18:26:49.187Z,-0.65
2022-11-18T18:29:16.858Z,-0.71
2022-11-18T18:31:44.423Z,-0.78
2022-11-18T18:34:12.064Z,-0.85
2022-11-18T18:36:39.662Z,-0.87
2022-11-18T18:39:07.274Z,-0.91
2022-11-18T18:41:35.193Z,-0.94
2022-11-18T18:44:02.802Z,-0.97
2022-11-18T18:46:32.261Z,-1.00
2022-11-18T18:49:08.774Z,-1.00
2022-11-18T18:51:41.147Z,-1.01
2022-11-18T18:54:14.670Z,-1.03
2022-11-18T18:56:42.788Z,-1.03
2022-11-18T18:59:10.755Z,-1.07
2022-11-18T19:01:39.064Z,-1.10
2022-11-18T19:04:07.644Z,-1.11
2022-11-18T19:06:58.800Z,-1.15
2022-11-18T19:09:25.117Z,-1.23
2022-11-18T19:12:12.578Z,-1.29
2022-11-18T19:14:40.360Z,-1.34
2022-11-18T19:17:12.642Z,-1.34
2022-11-18T19:20:20.692Z,-1.33
2022-11-18T19:22:48.238Z,-1.40
2022-11-18T19:25:15.886Z,-1.42
2022-11-18T19:27:43.527Z,-1.40
2022-11-18T19:30:11.820Z,-1.34
2022-11-18T19:32:40.617Z,-1.28
2022-11-18T19:35:09.041Z,-1.27
2022-11-18T19:37:37.381Z,-1.35
2022-11-18T19:40:09.079Z,-1.38
2022-11-18T19:42:39.414Z,-1.39
2022-11-18T19:45:08.748Z,-1.41
2022-11-18T19:47:36.683Z,-1.43
2022-11-18T19:50:05.965Z,-1.44
2022-11-18T19:52:33.630Z,-1.48
2022-11-18T19:55:01.239Z,-1.52
2022-11-18T19:57:29.003Z,-1.60
2022-11-18T19:59:56.601Z,-1.60
2022-11-18T20:02:24.623Z,-1.57
2022-11-18T20:05:10.954Z,-1.55
2022-11-18T20:07:38.612Z,-1.52
2022-11-18T20:10:06.741Z,-1.49
2022-11-18T20:12:34.323Z,-1.47
2022-11-18T20:15:02.207Z,-1.44
2022-11-18T20:17:29.784Z,-1.41
2022-11-18T20:19:57.371Z,-1.37
2022-11-18T20:22:25.041Z,-1.37
2022-11-18T20:24:52.651Z,-1.36
2022-11-18T20:27:21.131Z,-1.41
2022-11-18T20:29:48.703Z,-1.44
2022-11-18T20:32:16.326Z,-1.46
2022-11-18T20:34:44.128Z,-1.45
2022-11-18T20:37:12.928Z,-1.46
2022-11-18T20:39:40.543Z,-1.48
2022-11-18T20:42:26.975Z,-1.52
2022-11-18T20:44:54.563Z,-1.57
2022-11-18T20:47:22.171Z,-1.59
2022-11-18T20:49:49.796Z,-1.57
2022-11-18T20:52:17.368Z,-1.57
2022-11-18T20:54:45.726Z,-1.59
2022-11-18T20:57:13.282Z,-1.64
2022-11-18T20:59:40.928Z,-1.69
2022-11-18T21:02:08.627Z,-1.73
2022-11-18T21:04:36.295Z,-1.76
2022-11-18T21:07:04.304Z,-1.79
2022-11-18T21:09:32.961Z,-1.82
2022-11-18T21:12:01.047Z,-1.84
2022-11-18T21:14:28.719Z,-1.86
2022-11-18T21:17:00.811Z,-1.85
2022-11-18T21:19:29.101Z,-1.85
2022-11-18T21:21:57.016Z,-1.83
2022-11-18T21:24:29.487Z,-1.81
2022-11-18T21:26:57.937Z,-1.79
2022-11-18T21:29:27.715Z,-1.78
2022-11-18T21:31:55.990Z,-1.79
2022-11-18T21:34:24.446Z,-1.78
2022-11-18T21:36:55.001Z,-1.77
2022-11-18T21:39:24.577Z,-1.76
2022-11-18T21:41:56.182Z,-1.76
2022-11-18T21:44:26.116Z,-1.75
2022-11-18T21:46:53.866Z,-1.76
2022-11-18T21:49:22.026Z,-1.76
2022-11-18T21:51:50.049Z,-1.78
2022-11-18T21:54:18.495Z,-1.78
2022-11-18T21:56:46.196Z,-1.79
2022-11-18T21:59:14.001Z,-1.79
2022-11-18T22:01:41.637Z,-1.79
2022-11-18T22:04:29.189Z,-1.79
2022-11-18T22:06:56.833Z,-1.80
2022-11-18T22:09:24.571Z,-1.81
2022-11-18T22:11:52.199Z,-1.83
2022-11-18T22:14:19.745Z,-1.84
2022-11-18T22:16:47.394Z,-1.86
2022-11-18T22:19:14.974Z,-1.89
2022-11-18T22:21:42.568Z,-1.94
2022-11-18T22:24:10.776Z,-1.96
2022-11-18T22:26:38.352Z,-2.00
2022-11-18T22:29:06.112Z,-2.06
2022-11-18T22:31:33.670Z,-2.09
2022-11-18T22:34:01.263Z,-2.13
2022-11-18T22:36:28.897Z,-2.16
2022-11-18T22:38:56.475Z,-2.19
2022-11-18T22:41:46.639Z,-2.24
2022-11-18T22:44:16.148Z,-2.30
2022-11-18T22:46:45.155Z,-2.35
2022-11-18T22:49:13.687Z,-2.37
2022-11-18T22:51:41.623Z,-2.42
2022-11-18T22:54:37.061Z,-2.45
2022-11-18T22:56:57.433Z,-2.47
2022-11-18T22:59:25.101Z,-2.48
2022-11-18T23:01:52.962Z,-2.49
2022-11-18T23:04:20.802Z,-2.49
2022-11-18T23:06:49.251Z,-2.49
2022-11-18T23:09:17.739Z,-2.48
2022-11-18T23:12:04.497Z,-2.48
2022-11-18T23:14:32.103Z,-2.48
2022-11-18T23:16:59.728Z,-2.47
2022-11-18T23:19:27.318Z,-2.45
2022-11-18T23:21:54.906Z,-2.46
2022-11-18T23:24:22.680Z,-2.42
2022-11-18T23:26:50.296Z,-2.42
2022-11-18T23:29:18.290Z,-2.41
2022-11-18T23:31:46.121Z,-2.40
2022-11-18T23:34:15.166Z,-2.39
2022-11-18T23:36:43.111Z,-2.40
2022-11-18T23:39:11.053Z,-2.40
2022-11-18T23:41:38.988Z,-2.36
2022-11-18T23:44:06.969Z,-2.34
2022-11-18T23:46:35.007Z,-2.32
2022-11-18T23:49:02.635Z,-2.30
2022-11-18T23:51:30.236Z,-2.28
2022-11-18T23:53:57.910Z,-2.24
2022-11-18T23:56:26.698Z,-2.22
2022-11-18T23:58:56.198Z,-2.20
